createdAt,value
2023-04-02T00:02:34.224Z,100642.59
2023-04-02T00:05:31.148Z,100644.41
2023-04-02T00:08:01.255Z,100654.25
2023-04-02T00:10:32.757Z,100655.75
2023-04-02T00:13:02.751Z,100657.19
2023-04-02T00:15:32.067Z,100660.31
2023-04-02T00:18:02.870Z,100659.97
2023-04-02T00:20:34.192Z,100681.34
2023-04-02T00:23:03.432Z,100676.56
2023-04-02T00:25:42.966Z,100683.06
2023-04-02T00:28:14.057Z,100687.63
2023-04-02T00:30:48.568Z,100690.06
2023-04-02T00:33:20.656Z,100681.53
2023-04-02T00:35:51.116Z,100690.91
2023-04-02T00:38:25.726Z,100691.03
2023-04-02T00:40:57.169Z,100694.31
2023-04-02T00:43:27.928Z,100693.69
2023-04-02T00:45:59.107Z,100703.00
2023-04-02T00:48:42.053Z,100704.25
2023-04-02T00:51:16.960Z,100706.03
2023-04-02T00:53:47.696Z,100705.22
2023-04-02T00:56:20.730Z,100705.75
2023-04-02T00:58:53.506Z,100699.91
2023-04-02T01:01:25.302Z,100708.53
2023-04-02T01:03:58.231Z,100713.69
2023-04-02T01:06:31.051Z,100716.41
2023-04-02T01:09:22.425Z,100728.06
2023-04-02T01:12:11.970Z,100725.53
2023-04-02T01:14:51.888Z,100734.16
2023-04-02T01:17:42.937Z,100732.53
2023-04-02T01:20:48.902Z,100737.66
2023-04-02T01:23:23.155Z,100746.41
2023-04-02T01:25:56.386Z,100746.59
2023-04-02T01:28:29.551Z,100751.69
2023-04-02T01:31:02.595Z,100752.38
2023-04-02T01:33:34.852Z,100756.81
2023-04-02T01:36:11.626Z,100772.78
2023-04-02T01:38:45.061Z,100764.28
2023-04-02T01:41:22.044Z,100777.25
2023-04-02T01:43:54.355Z,100779.06
2023-04-02T01:46:28.110Z,100776.16
2023-04-02T01:48:57.393Z,100788.63
2023-04-02T01:51:31.028Z,100780.59
2023-04-02T01:54:03.536Z,100793.13
2023-04-02T01:56:32.391Z,100799.81
2023-04-02T01:59:02.695Z,100799.81
2023-04-02T02:01:40.599Z,100799.78
2023-04-02T02:04:13.721Z,100799.66
2023-04-02T02:06:42.492Z,100811.09
2023-04-02T02:09:15.968Z,100819.88
2023-04-02T02:11:44.180Z,100816.31
2023-04-02T02:14:17.660Z,100813.72
2023-04-02T02:16:48.781Z,100819.78
2023-04-02T02:19:24.587Z,100824.28
2023-04-02T02:21:54.938Z,100831.94
2023-04-02T02:24:26.171Z,100841.50
2023-04-02T02:27:06.402Z,100844.16
2023-04-02T02:29:39.760Z,100851.28
2023-04-02T02:32:11.881Z,100857.34
2023-04-02T02:34:46.959Z,100852.91
2023-04-02T02:37:20.143Z,100865.94
2023-04-02T02:39:54.994Z,100858.13
2023-04-02T02:42:29.807Z,100867.84
2023-04-02T02:44:59.275Z,100864.41
2023-04-02T02:47:30.451Z,100873.13
2023-04-02T02:50:04.472Z,100883.63
2023-04-02T02:52:36.210Z,100882.88
2023-04-02T02:55:13.063Z,100886.16
2023-04-02T02:58:08.844Z,100888.84
2023-04-02T03:00:45.431Z,100897.59
2023-04-02T03:03:18.707Z,100908.91
2023-04-02T03:05:54.296Z,100914.19
2023-04-02T03:08:28.733Z,100914.91
2023-04-02T03:11:03.423Z,100912.47
2023-04-02T03:13:35.506Z,100921.16
2023-04-02T03:16:12.300Z,100925.63
2023-04-02T03:18:49.070Z,100926.22
2023-04-02T03:21:25.792Z,100928.78
2023-04-02T03:23:58.458Z,100938.31
2023-04-02T03:26:34.380Z,100946.91
2023-04-02T03:29:08.129Z,100946.00
2023-04-02T03:31:40.844Z,100950.41
2023-04-02T03:34:18.593Z,100956.09
2023-04-02T03:36:56.828Z,100955.94
2023-04-02T03:39:31.508Z,100957.53
2023-04-02T03:42:04.463Z,100969.91
2023-04-02T03:44:38.760Z,100977.84
2023-04-02T03:47:16.087Z,100969.03
2023-04-02T03:49:54.322Z,100975.13
2023-04-02T03:52:26.901Z,100976.94
2023-04-02T03:54:59.825Z,100976.16
2023-04-02T03:57:33.663Z,100981.34
2023-04-02T04:00:14.310Z,100991.75
2023-04-02T04:02:52.718Z,100979.44
2023-04-02T04:05:27.582Z,100998.72
2023-04-02T04:08:02.486Z,101003.84
2023-04-02T04:10:31.827Z,101004.63
2023-04-02T04:13:04.667Z,101015.56
2023-04-02T04:15:38.192Z,101008.44
2023-04-02T04:18:19.292Z,101017.94
2023-04-02T04:20:56.310Z,101023.19
2023-04-02T04:23:32.728Z,101018.66
2023-04-02T04:26:10.475Z,101019.75
2023-04-02T04:28:48.224Z,101030.84
2023-04-02T04:31:24.620Z,101032.50
2023-04-02T04:34:03.050Z,101041.13
2023-04-02T04:36:41.535Z,101043.06
2023-04-02T04:39:18.694Z,101050.16
2023-04-02T04:41:52.636Z,101052.53
2023-04-02T04:44:25.180Z,101062.81
2023-04-02T04:47:03.257Z,101062.88
2023-04-02T04:49:36.881Z,101073.38
2023-04-02T04:52:11.115Z,101079.78
2023-04-02T04:54:41.123Z,101077.66
2023-04-02T04:57:25.177Z,101086.69
2023-04-02T04:59:59.615Z,101093.59
2023-04-02T05:02:35.089Z,101099.66
2023-04-02T05:05:04.966Z,101094.44
2023-04-02T05:07:49.418Z,101100.81
2023-04-02T05:10:24.659Z,101112.00
2023-04-02T05:12:57.518Z,101116.13
2023-04-02T05:15:31.239Z,101121.69
2023-04-02T05:18:18.539Z,101131.03
2023-04-02T05:20:51.449Z,101117.06
2023-04-02T05:23:27.289Z,101131.78
2023-04-02T05:26:06.545Z,101138.84
2023-04-02T05:28:41.894Z,101143.88
2023-04-02T05:31:20.385Z,101142.16
2023-04-02T05:33:50.729Z,101155.41
2023-04-02T05:36:24.706Z,101160.47
2023-04-02T05:39:00.194Z,101162.34
2023-04-02T05:41:41.168Z,101161.28
2023-04-02T05:44:19.244Z,101164.03
2023-04-02T05:46:52.529Z,101173.69
2023-04-02T05:49:31.329Z,101175.16
2023-04-02T05:52:03.250Z,101180.75
2023-04-02T05:54:39.226Z,101179.81
2023-04-02T05:57:13.729Z,101183.22
2023-04-02T05:59:46.042Z,101199.03
2023-04-02T06:02:24.063Z,101195.38
2023-04-02T06:04:57.953Z,101192.09
2023-04-02T06:07:35.467Z,101201.63
2023-04-02T06:10:10.894Z,101204.25
2023-04-02T06:12:45.348Z,101219.03
2023-04-02T06:15:15.569Z,101212.00
2023-04-02T06:17:48.568Z,101212.25
2023-04-02T06:20:19.011Z,101218.03
2023-04-02T06:22:53.003Z,101224.94
2023-04-02T06:25:28.903Z,101227.66
2023-04-02T06:28:00.758Z,101242.69
2023-04-02T06:30:32.905Z,101239.91
2023-04-02T06:33:02.121Z,101237.22
2023-04-02T06:35:31.401Z,101240.63
2023-04-02T06:38:06.725Z,101252.81
2023-04-02T06:40:48.698Z,101254.41
2023-04-02T06:43:35.694Z,101261.53
2023-04-02T06:46:19.921Z,101269.50
2023-04-02T06:49:24.241Z,101274.53
2023-04-02T06:51:59.581Z,101277.03
2023-04-02T06:54:28.297Z,101281.34
2023-04-02T06:57:02.761Z,101295.66
2023-04-02T06:59:35.123Z,101288.88
2023-04-02T07:02:17.388Z,101300.34
2023-04-02T07:04:45.781Z,101299.94
2023-04-02T07:07:14.283Z,101310.63
2023-04-02T07:09:45.068Z,101305.25
2023-04-02T07:12:15.715Z,101310.44
2023-04-02T07:14:47.934Z,101309.97
2023-04-02T07:17:17.896Z,101304.72
2023-04-02T07:19:49.579Z,101320.88
2023-04-02T07:22:20.548Z,101326.13
2023-04-02T07:24:53.614Z,101325.97
2023-04-02T07:27:23.123Z,101329.00
2023-04-02T07:29:51.278Z,101328.25
2023-04-02T07:32:19.920Z,101324.03
2023-04-02T07:34:48.963Z,101336.25
2023-04-02T07:37:17.153Z,101342.22
2023-04-02T07:39:45.299Z,101336.31
2023-04-02T07:42:13.424Z,101345.28
2023-04-02T07:44:43.026Z,101353.78
2023-04-02T07:47:11.513Z,101350.16
2023-04-02T07:49:39.660Z,101358.84
2023-04-02T07:52:07.906Z,101367.78
2023-04-02T07:54:38.250Z,101368.75
2023-04-02T07:57:06.496Z,101370.53
2023-04-02T07:59:34.674Z,101364.78
2023-04-02T08:02:04.416Z,101373.22
2023-04-02T08:04:33.124Z,101381.09
2023-04-02T08:07:01.594Z,101371.53
2023-04-02T08:09:29.724Z,101375.72
2023-04-02T08:11:57.874Z,101378.34
2023-04-02T08:14:26.293Z,101393.53
2023-04-02T08:16:56.332Z,101387.25
2023-04-02T08:19:26.498Z,101401.63
2023-04-02T08:21:55.090Z,101402.97
2023-04-02T08:24:24.097Z,101409.44
2023-04-02T08:26:53.509Z,101413.63
2023-04-02T08:29:21.677Z,101414.41
2023-04-02T08:31:50.011Z,101417.75
2023-04-02T08:34:18.167Z,101421.22
2023-04-02T08:36:47.625Z,101439.69
2023-04-02T08:39:15.913Z,101431.41
2023-04-02T08:41:51.319Z,101446.72
2023-04-02T08:44:36.668Z,101453.44
2023-04-02T08:47:06.491Z,101443.19
2023-04-02T08:49:42.696Z,101454.31
2023-04-02T08:52:21.990Z,101452.69
2023-04-02T08:54:50.939Z,101457.16
2023-04-02T08:57:28.241Z,101463.09
2023-04-02T09:00:02.614Z,101458.31
2023-04-02T09:02:36.169Z,101472.69
2023-04-02T09:05:08.126Z,101467.81
2023-04-02T09:07:37.893Z,101486.97
2023-04-02T09:10:07.325Z,101476.38
2023-04-02T09:12:36.512Z,101482.22
2023-04-02T09:15:24.638Z,101493.50
2023-04-02T09:18:01.027Z,101488.34
2023-04-02T09:20:29.562Z,101500.97
2023-04-02T09:22:59.133Z,101500.38
2023-04-02T09:25:29.774Z,101510.94
2023-04-02T09:28:01.433Z,101509.91
2023-04-02T09:30:42.633Z,101513.34
2023-04-02T09:33:11.599Z,101513.34
2023-04-02T09:35:56.583Z,101524.69
2023-04-02T09:38:30.861Z,101523.59
2023-04-02T09:41:01.483Z,101540.78
2023-04-02T09:43:31.697Z,101535.34
2023-04-02T09:46:03.078Z,101537.34
2023-04-02T09:48:35.358Z,101552.16
2023-04-02T09:51:17.822Z,101552.16
2023-04-02T09:53:49.316Z,101555.53
2023-04-02T09:56:19.834Z,101552.50
2023-04-02T09:59:03.826Z,101559.03
2023-04-02T10:01:34.149Z,101557.13
2023-04-02T10:04:05.417Z,101559.00
2023-04-02T10:06:35.850Z,101568.22
2023-04-02T10:09:28.598Z,101567.88
2023-04-02T10:11:58.276Z,101572.59
2023-04-02T10:14:29.617Z,101582.66
2023-04-02T10:17:00.734Z,101590.16
2023-04-02T10:19:33.536Z,101602.84
2023-04-02T10:22:06.214Z,101589.50
2023-04-02T10:24:36.054Z,101592.81
2023-04-02T10:27:17.371Z,101604.94
2023-04-02T10:30:02.241Z,101599.03
2023-04-02T10:32:38.183Z,101602.75
2023-04-02T10:35:15.747Z,101616.09
2023-04-02T10:38:02.383Z,101608.94
2023-04-02T10:40:36.953Z,101619.34
2023-04-02T10:43:51.319Z,101621.16
2023-04-02T10:46:25.369Z,101627.34
2023-04-02T10:49:05.477Z,101631.34
2023-04-02T10:51:41.524Z,101639.53
2023-04-02T10:54:27.904Z,101638.50
2023-04-02T10:57:02.461Z,101650.16
2023-04-02T10:59:35.141Z,101655.22
2023-04-02T11:02:12.170Z,101652.16
2023-04-02T11:04:46.285Z,101663.50
2023-04-02T11:07:19.477Z,101662.28
2023-04-02T11:09:51.449Z,101665.88
2023-04-02T11:12:26.149Z,101661.06
2023-04-02T11:14:56.819Z,101668.91
2023-04-02T11:17:25.827Z,101659.44
2023-04-02T11:19:54.117Z,101670.13
2023-04-02T11:22:24.090Z,101660.16
2023-04-02T11:24:54.561Z,101663.59
2023-04-02T11:27:27.932Z,101667.19
2023-04-02T11:30:06.071Z,101667.66
2023-04-02T11:32:40.567Z,101670.53
2023-04-02T11:35:40.713Z,101669.38
2023-04-02T11:38:46.335Z,101679.28
2023-04-02T11:41:14.737Z,101681.69
2023-04-02T11:44:01.496Z,101686.84
2023-04-02T11:46:51.619Z,101680.84
2023-04-02T11:49:40.809Z,101681.00
2023-04-02T11:52:27.981Z,101678.25
2023-04-02T11:55:02.309Z,101675.88
2023-04-02T11:57:51.802Z,101681.31
2023-04-02T12:00:53.797Z,101691.63
2023-04-02T12:03:37.038Z,101694.41
2023-04-02T12:06:10.752Z,101687.16
2023-04-02T12:08:57.549Z,101701.97
2023-04-02T12:11:35.897Z,101710.59
2023-04-02T12:14:28.266Z,101697.94
2023-04-02T12:16:59.574Z,101710.56
2023-04-02T12:19:30.578Z,101713.78
2023-04-02T12:22:00.541Z,101718.25
2023-04-02T12:24:31.489Z,101718.47
2023-04-02T12:27:15.590Z,101722.56
2023-04-02T12:29:44.478Z,101714.34
2023-04-02T12:32:22.992Z,101722.84
2023-04-02T12:34:52.568Z,101729.75
2023-04-02T12:37:23.105Z,101722.72
2023-04-02T12:39:57.001Z,101716.53
2023-04-02T12:42:30.215Z,101725.88
2023-04-02T12:44:58.405Z,101721.19
2023-04-02T12:47:28.839Z,101719.81
2023-04-02T12:49:59.373Z,101711.91
2023-04-02T12:52:29.757Z,101713.09
2023-04-02T12:55:00.180Z,101710.25
2023-04-02T12:57:39.799Z,101706.66
2023-04-02T13:00:32.067Z,101699.69
2023-04-02T13:03:16.668Z,101694.38
2023-04-02T13:05:48.118Z,101715.84
2023-04-02T13:08:19.548Z,101718.66
2023-04-02T13:10:54.756Z,101732.66
2023-04-02T13:13:30.140Z,101714.63
2023-04-02T13:16:03.869Z,101715.41
2023-04-02T13:18:35.311Z,101711.69
2023-04-02T13:21:04.673Z,101719.16
2023-04-02T13:23:36.277Z,101716.25
2023-04-02T13:26:16.922Z,101703.53
2023-04-02T13:28:45.325Z,101717.75
2023-04-02T13:31:16.634Z,101694.16
2023-04-02T13:33:46.222Z,101705.88
2023-04-02T13:36:15.116Z,101720.97
2023-04-02T13:38:43.311Z,101712.84
2023-04-02T13:41:21.356Z,101713.91
2023-04-02T13:43:50.096Z,101707.63
2023-04-02T13:46:22.097Z,101723.44
2023-04-02T13:48:53.291Z,101724.16
2023-04-02T13:51:24.085Z,101718.47
2023-04-02T13:53:56.139Z,101715.75
2023-04-02T13:56:24.745Z,101712.53
2023-04-02T13:58:53.373Z,101718.16
2023-04-02T14:01:23.723Z,101733.53
2023-04-02T14:03:54.916Z,101729.53
2023-04-02T14:06:32.136Z,101745.38
2023-04-02T14:09:05.121Z,101728.63
2023-04-02T14:11:47.860Z,101739.97
2023-04-02T14:14:29.797Z,101740.84
2023-04-02T14:17:12.093Z,101746.03
2023-04-02T14:19:53.099Z,101745.47
2023-04-02T14:22:30.888Z,101735.72
2023-04-02T14:25:08.484Z,101761.78
2023-04-02T14:27:45.054Z,101763.97
2023-04-02T14:30:22.436Z,101779.84
2023-04-02T14:32:59.036Z,101763.50
2023-04-02T14:35:33.736Z,101766.22
2023-04-02T14:38:10.831Z,101769.34
2023-04-02T14:40:46.283Z,101777.94
2023-04-02T14:43:20.521Z,101760.97
2023-04-02T14:46:01.196Z,101769.34
2023-04-02T14:48:38.015Z,101779.56
2023-04-02T14:51:15.516Z,101781.81
2023-04-02T14:53:52.430Z,101786.69
2023-04-02T14:56:22.780Z,101792.56
2023-04-02T14:58:56.146Z,101779.50
2023-04-02T15:01:28.470Z,101764.16
2023-04-02T15:04:02.135Z,101780.19
2023-04-02T15:06:37.829Z,101768.53
2023-04-02T15:09:13.220Z,101777.50
2023-04-02T15:11:46.091Z,101774.22
2023-04-02T15:14:19.873Z,101781.56
2023-04-02T15:16:48.203Z,101786.03
2023-04-02T15:19:18.624Z,101801.09
2023-04-02T15:22:14.596Z,101779.16
2023-04-02T15:24:51.951Z,101789.06
2023-04-02T15:27:32.899Z,101795.25
2023-04-02T15:30:08.964Z,101790.13
2023-04-02T15:32:39.256Z,101804.41
2023-04-02T15:35:20.467Z,101794.19
2023-04-02T15:37:59.299Z,101798.56
2023-04-02T15:40:52.190Z,101812.09
2023-04-02T15:43:37.937Z,101819.19
2023-04-02T15:46:13.260Z,101827.34
2023-04-02T15:49:06.589Z,101833.44
2023-04-02T15:52:00.380Z,101825.28
2023-04-02T15:54:46.913Z,101815.34
2023-04-02T15:57:32.350Z,101826.16
2023-04-02T16:00:20.852Z,101843.03
2023-04-02T16:03:11.915Z,101851.72
2023-04-02T16:05:45.089Z,101851.38
2023-04-02T16:08:50.382Z,101861.28
2023-04-02T16:11:20.872Z,101836.50
2023-04-02T16:13:49.021Z,101846.00
2023-04-02T16:16:23.699Z,101849.91
2023-04-02T16:18:57.607Z,101854.16
2023-04-02T16:21:32.444Z,101863.22
2023-04-02T16:24:00.889Z,101873.84
2023-04-02T16:26:37.713Z,101886.19
2023-04-02T16:29:23.528Z,101897.50
2023-04-02T16:31:57.821Z,101905.41
2023-04-02T16:34:40.370Z,101900.25
2023-04-02T16:37:19.496Z,101899.88
2023-04-02T16:39:53.908Z,101906.09
2023-04-02T16:42:35.044Z,101905.75
2023-04-02T16:45:18.766Z,101907.66
2023-04-02T16:47:57.892Z,101930.84
2023-04-02T16:50:37.863Z,101926.56
2023-04-02T16:53:19.382Z,101934.56
2023-04-02T16:56:03.232Z,101937.59
2023-04-02T16:58:46.839Z,101943.53
2023-04-02T17:01:22.897Z,101939.31
2023-04-02T17:04:02.211Z,101951.72
2023-04-02T17:06:41.908Z,101952.00
2023-04-02T17:09:17.293Z,101944.22
2023-04-02T17:11:50.041Z,101962.03
2023-04-02T17:14:28.442Z,101962.97
2023-04-02T17:17:02.729Z,101969.28
2023-04-02T17:19:33.074Z,101978.19
2023-04-02T17:22:02.842Z,101980.00
2023-04-02T17:24:34.860Z,101977.75
2023-04-02T17:27:11.384Z,101991.69
2023-04-02T17:29:44.536Z,101995.28
2023-04-02T17:32:18.640Z,102001.47
2023-04-02T17:34:46.806Z,102015.78
2023-04-02T17:37:27.544Z,102012.81
2023-04-02T17:40:06.723Z,102019.16
2023-04-02T17:42:47.349Z,102027.28
2023-04-02T17:45:22.889Z,102029.03
2023-04-02T17:48:02.595Z,102027.16
2023-04-02T17:50:49.287Z,102029.88
2023-04-02T17:53:29.093Z,102043.31
2023-04-02T17:56:22.002Z,102036.25
2023-04-02T17:59:03.244Z,102045.41
2023-04-02T18:01:38.160Z,102063.69
2023-04-02T18:04:19.094Z,102061.25
2023-04-02T18:07:09.525Z,102062.19
2023-04-02T18:09:45.511Z,102070.91
2023-04-02T18:12:32.143Z,102081.44
2023-04-02T18:15:11.880Z,102088.56
2023-04-02T18:17:49.165Z,102084.97
2023-04-02T18:20:32.243Z,102085.94
2023-04-02T18:23:08.985Z,102095.72
2023-04-02T18:25:56.508Z,102105.53
2023-04-02T18:28:47.060Z,102107.06
2023-04-02T18:31:26.408Z,102110.81
2023-04-02T18:34:13.169Z,102119.56
2023-04-02T18:36:53.852Z,102123.00
2023-04-02T18:39:31.800Z,102119.63
2023-04-02T18:42:06.329Z,102130.16
2023-04-02T18:44:53.052Z,102131.88
2023-04-02T18:47:29.829Z,102131.13
2023-04-02T18:50:13.205Z,102142.47
2023-04-02T18:52:42.031Z,102151.25
2023-04-02T18:55:18.145Z,102142.78
2023-04-02T18:57:49.550Z,102151.56
2023-04-02T19:00:26.477Z,102167.28
2023-04-02T19:03:00.087Z,102160.19
2023-04-02T19:05:37.641Z,102167.22
2023-04-02T19:08:14.075Z,102164.75
2023-04-02T19:10:44.800Z,102165.63
2023-04-02T19:13:17.782Z,102177.00
2023-04-02T19:16:02.288Z,102185.78
2023-04-02T19:18:40.099Z,102189.28
2023-04-02T19:21:19.083Z,102198.00
2023-04-02T19:24:01.006Z,102193.69
2023-04-02T19:26:36.744Z,102204.19
2023-04-02T19:29:17.259Z,102206.91
2023-04-02T19:31:54.535Z,102214.72
2023-04-02T19:34:29.288Z,102213.09
2023-04-02T19:37:04.604Z,102206.88
2023-04-02T19:39:54.453Z,102216.56
2023-04-02T19:42:40.697Z,102218.31
2023-04-02T19:45:28.364Z,102227.09
2023-04-02T19:47:58.560Z,102223.56
2023-04-02T19:50:26.841Z,102227.09
2023-04-02T19:52:56.442Z,102227.16
2023-04-02T19:55:24.631Z,102241.16
2023-04-02T19:57:54.679Z,102234.16
2023-04-02T20:00:26.486Z,102239.41
2023-04-02T20:02:54.693Z,102234.16
2023-04-02T20:05:22.881Z,102242.91
2023-04-02T20:07:51.581Z,102254.28
2023-04-02T20:10:23.015Z,102253.41
2023-04-02T20:12:51.469Z,102261.28
2023-04-02T20:15:20.385Z,102266.53
2023-04-02T20:17:48.549Z,102277.91
2023-04-02T20:20:17.114Z,102279.63
2023-04-02T20:22:45.410Z,102282.25
2023-04-02T20:25:13.631Z,102291.88
2023-04-02T20:27:43.171Z,102289.25
2023-04-02T20:30:12.103Z,102298.88
2023-04-02T20:32:40.603Z,102298.88
2023-04-02T20:35:09.601Z,102305.84
2023-04-02T20:37:39.507Z,102304.09
2023-04-02T20:40:09.991Z,102304.97
2023-04-02T20:42:38.170Z,102330.25
2023-04-02T20:45:09.504Z,102316.31
2023-04-02T20:47:37.677Z,102312.81
2023-04-02T20:50:06.975Z,102328.50
2023-04-02T20:52:35.115Z,102324.16
2023-04-02T20:55:03.573Z,102329.38
2023-04-02T20:57:32.810Z,102333.72
2023-04-02T21:00:03.670Z,102338.97
2023-04-02T21:02:33.154Z,102344.19
2023-04-02T21:05:01.308Z,102341.59
2023-04-02T21:07:29.470Z,102345.03
2023-04-02T21:09:57.724Z,102351.13
2023-04-02T21:12:26.844Z,102351.13
2023-04-02T21:14:59.209Z,102354.63
2023-04-02T21:17:29.688Z,102362.47
2023-04-02T21:20:05.891Z,102349.38
2023-04-02T21:22:34.482Z,102367.59
2023-04-02T21:25:02.671Z,102365.00
2023-04-02T21:27:30.817Z,102361.56
2023-04-02T21:29:59.042Z,102364.97
2023-04-02T21:32:27.240Z,102366.72
2023-04-02T21:34:55.809Z,102375.44
2023-04-02T21:37:25.375Z,102371.94
2023-04-02T21:39:53.517Z,102375.44
2023-04-02T21:42:22.384Z,102370.22
2023-04-02T21:44:51.014Z,102374.59
2023-04-02T21:47:19.291Z,102372.81
2023-04-02T21:49:47.478Z,102380.59
2023-04-02T21:52:16.130Z,102361.44
2023-04-02T21:54:46.404Z,102375.38
2023-04-02T21:57:14.838Z,102377.13
2023-04-02T21:59:43.645Z,102384.03
2023-04-02T22:02:12.145Z,102387.47
2023-04-02T22:04:40.918Z,102384.06
2023-04-02T22:07:09.133Z,102384.94
2023-04-02T22:09:37.261Z,102388.38
2023-04-02T22:12:08.164Z,102391.81
2023-04-02T22:14:36.419Z,102391.84
2023-04-02T22:17:04.681Z,102399.69
2023-04-02T22:19:33.350Z,102400.56
2023-04-02T22:22:01.489Z,102402.25
2023-04-02T22:24:29.983Z,102397.00
2023-04-02T22:26:58.176Z,102403.94
2023-04-02T22:29:27.940Z,102398.69
2023-04-02T22:31:56.066Z,102410.03
2023-04-02T22:34:24.224Z,102414.41
2023-04-02T22:36:53.005Z,102412.59
2023-04-02T22:39:21.256Z,102415.22
2023-04-02T22:41:49.432Z,102419.63
2023-04-02T22:44:17.823Z,102414.38
2023-04-02T22:46:47.298Z,102419.63
2023-04-02T22:49:19.214Z,102414.25
2023-04-02T22:51:47.935Z,102426.47
2023-04-02T22:54:16.130Z,102412.59
2023-04-02T22:56:44.272Z,102424.75
2023-04-02T22:59:12.434Z,102423.84
2023-04-02T23:01:41.086Z,102422.94
2023-04-02T23:04:10.616Z,102428.19
2023-04-02T23:06:38.735Z,102431.63
2023-04-02T23:09:06.906Z,102432.53
2023-04-02T23:11:35.081Z,102437.72
2023-04-02T23:14:03.294Z,102442.09
2023-04-02T23:16:31.594Z,102438.47
2023-04-02T23:18:59.844Z,102431.63
2023-04-02T23:21:29.290Z,102448.94
2023-04-02T23:23:57.426Z,102448.97
2023-04-02T23:26:29.695Z,102441.97
2023-04-02T23:28:58.195Z,102448.13
2023-04-02T23:31:26.873Z,102447.22
2023-04-02T23:33:55.170Z,102446.38
2023-04-02T23:36:25.157Z,102449.75
2023-04-02T23:38:56.170Z,102449.72
2023-04-02T23:41:27.013Z,102443.72
2023-04-02T23:43:55.924Z,102456.72
2023-04-02T23:46:25.110Z,102461.09
2023-04-02T23:48:53.378Z,102463.59
2023-04-02T23:51:21.742Z,102457.47
2023-04-02T23:53:50.847Z,102458.41
2023-04-02T23:56:21.741Z,102466.28
2023-04-02T23:58:51.753Z,102469.69
